Time;durP1;ratioP1;P1;durP2;ratioP2;P2;SDS_P1;SDS_P2;PMS_P1;PMS_P2;Temp;Humidity;BMP_temperature;BMP_pressure;BME280_temperature;BME280_humidity;BME280_pressure;Samples;Min_cycle;Max_cycle;Signal;HPM_P1;HPM_P2
2022/05/30 00:01:22;;;;;;;5.05;0.60;;;7.50;99.90;;;;;;5009625;28;20038;-44
2022/05/30 00:03:48;;;;;;;6.20;0.50;;;7.50;99.90;;;;;;5009893;28;20049;-44
2022/05/30 00:06:18;;;;;;;5.93;0.93;;;8.00;99.90;;;;;;5009082;28;20536;-42
2022/05/30 00:08:44;;;;;;;6.28;0.70;;;7.30;99.90;;;;;;5010378;28;20417;-43
2022/05/30 00:11:12;;;;;;;3.55;0.30;;;7.50;99.90;;;;;;5031179;28;20140;-44
2022/05/30 00:13:40;;;;;;;3.30;0.50;;;7.00;99.90;;;;;;5032787;28;20472;-42
2022/05/30 00:16:10;;;;;;;4.93;0.60;;;7.40;99.90;;;;;;5032738;28;20052;-44
2022/05/30 00:18:36;;;;;;;5.60;0.82;;;7.30;99.90;;;;;;5033175;28;20053;-43
2022/05/30 00:21:02;;;;;;;5.25;0.80;;;8.00;99.90;;;;;;5032928;28;20080;-44
2022/05/30 00:23:29;;;;;;;9.90;0.95;;;7.10;99.90;;;;;;5032752;28;20497;-43
2022/05/30 00:25:55;;;;;;;4.93;0.70;;;6.90;99.90;;;;;;5032641;28;20053;-44
2022/05/30 00:28:22;;;;;;;7.65;0.95;;;7.40;99.90;;;;;;5032850;28;20037;-43
2022/05/30 00:30:49;;;;;;;6.32;0.60;;;6.70;99.90;;;;;;5033051;28;20038;-44
2022/05/30 00:33:16;;;;;;;5.47;1.63;;;6.60;99.90;;;;;;5032798;28;20045;-43
2022/05/30 00:35:42;;;;;;;3.35;0.43;;;6.30;99.90;;;;;;5032666;28;20056;-43
2022/05/30 00:38:09;;;;;;;5.88;0.60;;;6.60;99.90;;;;;;5032515;28;20046;-43
2022/05/30 00:40:35;;;;;;;5.88;0.80;;;6.40;99.90;;;;;;5032014;28;20065;-43
2022/05/30 00:43:37;;;;;;;4.85;0.70;;;6.00;99.90;;;;;;5032152;28;20363;-43
2022/05/30 00:46:12;;;;;;;4.72;0.70;;;5.80;99.90;;;;;;5029440;28;20076;-45
2022/05/30 00:48:46;;;;;;;6.22;0.73;;;6.30;99.90;;;;;;5031867;28;20099;-43
2022/05/30 00:51:16;;;;;;;4.22;0.55;;;5.60;99.90;;;;;;5032064;28;20072;-43
2022/05/30 00:53:44;;;;;;;6.18;0.63;;;5.30;99.90;;;;;;5032105;28;20041;-44
2022/05/30 00:56:11;;;;;;;5.88;0.52;;;5.30;99.90;;;;;;5032219;28;20373;-44
2022/05/30 00:58:44;;;;;;;8.07;0.77;;;5.20;99.90;;;;;;5031978;28;20149;-43
2022/05/30 01:01:10;;;;;;;4.70;0.75;;;5.10;99.90;;;;;;5031675;28;20041;-43
2022/05/30 01:06:30;;;;;;;11.70;1.45;;;4.90;99.90;;;;;;5032006;28;20092;-43
2022/05/30 01:08:57;;;;;;;8.15;0.98;;;4.80;99.90;;;;;;5032017;28;20408;-42
2022/05/30 01:11:23;;;;;;;11.65;1.75;;;4.80;99.90;;;;;;5011800;28;20489;-43
2022/05/30 01:13:49;;;;;;;9.65;0.88;;;4.70;99.90;;;;;;5011778;28;20100;-44
2022/05/30 01:16:15;;;;;;;8.25;1.23;;;4.50;99.90;;;;;;5011757;28;20076;-42
2022/05/30 01:18:47;;;;;;;7.68;0.80;;;4.60;99.90;;;;;;5011583;28;20046;-43
2022/05/30 01:21:43;;;;;;;7.78;1.05;;;4.50;99.90;;;;;;5011730;28;20068;-44
2022/05/30 01:24:26;;;;;;;7.35;1.33;;;4.50;99.90;;;;;;5012121;28;20041;-43
2022/05/30 01:27:17;;;;;;;7.20;1.45;;;4.40;99.90;;;;;;5011805;28;20046;-43
2022/05/30 01:29:49;;;;;;;7.13;1.20;;;4.30;99.90;;;;;;5011728;28;20041;-43
2022/05/30 01:32:20;;;;;;;8.57;1.77;;;4.30;99.90;;;;;;5011495;28;20595;-43
2022/05/30 01:34:46;;;;;;;6.68;1.20;;;4.10;99.90;;;;;;5011678;28;20042;-42
2022/05/30 01:37:12;;;;;;;7.15;1.17;;;4.20;99.90;;;;;;5011501;28;20404;-44
2022/05/30 01:39:38;;;;;;;7.60;1.90;;;4.10;99.90;;;;;;5011126;28;20401;-43
2022/05/30 01:42:04;;;;;;;9.52;1.27;;;4.10;99.90;;;;;;5011165;28;20041;-43
2022/05/30 01:44:30;;;;;;;7.03;1.73;;;4.20;99.90;;;;;;5010963;28;20049;-42
2022/05/30 01:46:55;;;;;;;6.38;1.50;;;4.10;99.90;;;;;;5011466;28;20477;-42
2022/05/30 01:49:21;;;;;;;6.07;1.70;;;4.00;99.90;;;;;;5011252;28;20050;-44
2022/05/30 01:51:47;;;;;;;7.70;1.17;;;4.10;99.90;;;;;;5011889;28;20436;-43
2022/05/30 01:54:12;;;;;;;5.50;1.33;;;4.00;99.90;;;;;;5011669;28;20045;-42
2022/05/30 01:56:38;;;;;;;7.78;1.23;;;4.00;99.90;;;;;;5010972;28;20050;-43
2022/05/30 01:59:04;;;;;;;8.65;1.58;;;4.30;99.90;;;;;;5011328;28;20034;-43
2022/05/30 02:01:30;;;;;;;8.02;1.65;;;4.10;99.90;;;;;;5010679;28;20124;-42
2022/05/30 02:03:57;;;;;;;5.22;1.63;;;4.10;99.90;;;;;;5010603;28;20041;-44
2022/05/30 02:06:24;;;;;;;7.72;1.60;;;4.10;99.90;;;;;;5010527;28;20061;-42
2022/05/30 02:08:50;;;;;;;15.05;2.17;;;4.00;99.90;;;;;;5011304;28;20048;-43
2022/05/30 02:11:17;;;;;;;9.48;1.60;;;4.10;99.90;;;;;;5010749;28;20046;-42
2022/05/30 02:13:44;;;;;;;7.28;1.85;;;4.00;99.90;;;;;;5010544;28;20052;-43
2022/05/30 02:18:57;;;;;;;5.75;1.55;;;4.20;99.90;;;;;;5010418;28;20483;-42
2022/05/30 02:21:22;;;;;;;9.25;1.98;;;4.20;99.90;;;;;;5010664;28;20104;-44
2022/05/30 02:23:48;;;;;;;10.75;2.83;;;4.40;99.90;;;;;;5010198;28;20045;-44
2022/05/30 02:26:14;;;;;;;19.63;3.30;;;4.50;99.90;;;;;;5010560;28;20049;-43
2022/05/30 02:28:40;;;;;;;10.48;2.28;;;4.50;99.90;;;;;;5010325;28;20464;-42
2022/05/30 02:31:07;;;;;;;6.85;2.58;;;4.70;99.90;;;;;;5009145;28;20063;-43
2022/05/30 02:39:02;;;;;;;6.30;1.75;;;4.80;99.90;;;;;;5010470;28;20088;-43
2022/05/30 02:41:28;;;;;;;10.20;2.40;;;4.90;99.90;;;;;;5008984;28;20362;-44
2022/05/30 02:43:54;;;;;;;10.50;2.13;;;4.90;99.90;;;;;;5010108;28;20052;-43
2022/05/30 02:46:19;;;;;;;8.15;2.40;;;5.00;99.90;;;;;;5009869;28;20125;-43
2022/05/30 02:48:45;;;;;;;10.95;3.30;;;4.90;99.90;;;;;;5010145;28;20547;-42
2022/05/30 02:51:11;;;;;;;8.35;2.25;;;5.00;99.90;;;;;;5010371;28;20496;-44
2022/05/30 02:53:37;;;;;;;8.73;2.10;;;6.10;99.90;;;;;;5010004;28;20046;-44
2022/05/30 02:56:03;;;;;;;7.97;2.28;;;4.90;99.90;;;;;;5010003;28;20416;-42
2022/05/30 02:58:29;;;;;;;25.63;3.92;;;5.00;99.90;;;;;;5010046;28;20128;-43
2022/05/30 03:00:55;;;;;;;7.93;2.85;;;5.00;99.90;;;;;;5010159;28;20116;-42
2022/05/30 03:03:20;;;;;;;7.10;1.80;;;4.80;99.90;;;;;;5010201;28;20499;-43
2022/05/30 03:05:46;;;;;;;11.07;2.40;;;4.70;99.90;;;;;;5009605;28;20075;-44
2022/05/30 03:08:12;;;;;;;10.07;1.90;;;4.70;99.90;;;;;;5008581;28;20054;-42
2022/05/30 03:10:38;;;;;;;6.63;1.63;;;4.70;99.90;;;;;;5009571;28;20121;-42
2022/05/30 03:13:05;;;;;;;6.63;2.25;;;4.70;99.90;;;;;;5008434;28;20085;-43
2022/05/30 03:15:31;;;;;;;7.45;2.53;;;4.60;99.90;;;;;;5010508;28;20093;-43
2022/05/30 03:17:57;;;;;;;8.00;2.53;;;5.00;99.90;;;;;;5009772;28;20453;-43
2022/05/30 03:20:23;;;;;;;6.38;2.38;;;4.50;99.90;;;;;;5009925;28;20444;-42
2022/05/30 03:22:49;;;;;;;5.72;1.92;;;4.50;99.90;;;;;;5008443;28;20473;-44
2022/05/30 03:25:17;;;;;;;13.27;3.58;;;4.80;99.90;;;;;;5009982;28;20100;-44
2022/05/30 03:27:42;;;;;;;10.25;2.33;;;4.40;99.90;;;;;;5009622;28;20058;-44
2022/05/30 03:30:10;;;;;;;7.63;1.63;;;4.20;99.90;;;;;;5009472;28;20081;-44
2022/05/30 03:32:36;;;;;;;6.28;2.22;;;4.30;99.90;;;;;;5009453;28;20034;-43
2022/05/30 03:35:01;;;;;;;9.00;2.80;;;4.20;99.90;;;;;;5008175;28;20543;-43
2022/05/30 03:37:27;;;;;;;8.48;2.35;;;4.30;99.90;;;;;;5009664;28;20069;-42
2022/05/30 03:39:53;;;;;;;8.82;3.83;;;4.20;99.90;;;;;;5009591;28;20374;-45
2022/05/30 03:42:19;;;;;;;10.40;2.80;;;4.10;99.90;;;;;;5009586;28;20049;-44
2022/05/30 03:44:45;;;;;;;5.88;2.33;;;4.00;99.90;;;;;;5011706;28;20044;-43
2022/05/30 03:47:11;;;;;;;7.78;2.08;;;4.10;99.90;;;;;;5013620;28;20488;-43
2022/05/30 03:49:37;;;;;;;5.88;2.42;;;4.00;99.90;;;;;;5013614;28;20054;-45
2022/05/30 03:52:03;;;;;;;6.28;2.25;;;4.10;99.90;;;;;;5013774;28;20065;-43
2022/05/30 03:54:29;;;;;;;6.03;2.28;;;4.10;99.90;;;;;;5013150;28;20120;-44
2022/05/30 03:56:55;;;;;;;11.07;2.30;;;4.10;99.90;;;;;;5012753;28;20129;-43
2022/05/30 03:59:21;;;;;;;9.68;2.33;;;4.10;99.90;;;;;;5012768;28;20353;-43
2022/05/30 04:01:46;;;;;;;10.93;2.97;;;4.30;99.90;;;;;;5013241;28;20042;-43
2022/05/30 04:04:12;;;;;;;9.48;2.25;;;4.70;99.90;;;;;;5013253;28;20050;-42
2022/05/30 04:06:39;;;;;;;7.93;2.55;;;4.10;99.90;;;;;;5012695;28;20065;-43
2022/05/30 04:09:05;;;;;;;5.93;2.25;;;4.30;99.90;;;;;;5012860;28;20498;-43
2022/05/30 04:11:31;;;;;;;6.78;2.30;;;4.50;99.90;;;;;;5013310;28;20112;-43
2022/05/30 04:13:57;;;;;;;7.53;3.00;;;4.40;99.90;;;;;;5012258;28;20046;-43
2022/05/30 04:16:23;;;;;;;6.85;2.95;;;4.40;99.90;;;;;;5012858;28;20080;-44
2022/05/30 04:18:49;;;;;;;9.02;2.85;;;4.60;99.90;;;;;;5012599;28;20080;-42
2022/05/30 04:21:15;;;;;;;15.10;2.55;;;4.80;99.90;;;;;;5012803;28;20524;-44
2022/05/30 04:23:42;;;;;;;7.00;2.63;;;4.90;99.90;;;;;;5012523;28;20038;-44
2022/05/30 04:26:09;;;;;;;9.75;2.92;;;5.10;99.90;;;;;;5012887;28;20541;-43
2022/05/30 04:28:35;;;;;;;7.18;2.88;;;5.10;99.90;;;;;;5012488;28;20041;-43
2022/05/30 04:31:14;;;;;;;8.32;3.25;;;5.20;99.90;;;;;;5012338;28;20630;-43
2022/05/30 04:33:41;;;;;;;9.70;3.30;;;5.30;99.90;;;;;;5012614;28;20046;-45
2022/05/30 04:36:08;;;;;;;7.30;3.00;;;5.40;99.90;;;;;;5012383;28;20045;-43
2022/05/30 04:38:34;;;;;;;7.57;3.28;;;5.50;99.90;;;;;;5011269;28;20121;-43
2022/05/30 04:41:00;;;;;;;9.40;3.05;;;5.70;99.90;;;;;;5012187;28;20572;-43
2022/05/30 04:43:26;;;;;;;9.73;3.22;;;5.60;99.90;;;;;;5012187;28;20046;-45
2022/05/30 04:46:11;;;;;;;9.25;2.75;;;5.70;99.90;;;;;;5012478;28;20088;-42
2022/05/30 04:48:37;;;;;;;16.10;5.38;;;5.80;99.90;;;;;;5012371;28;20040;-43
2022/05/30 04:51:03;;;;;;;6.57;2.83;;;5.90;99.90;;;;;;5011826;28;20049;-43
2022/05/30 04:53:29;;;;;;;7.10;3.20;;;6.00;99.90;;;;;;5012858;28;20073;-43
2022/05/30 04:55:55;;;;;;;8.77;3.60;;;7.00;99.90;;;;;;5010990;28;20092;-43
2022/05/30 04:58:20;;;;;;;11.30;3.42;;;6.10;99.90;;;;;;5012504;28;20077;-43
2022/05/30 05:00:46;;;;;;;5.00;2.60;;;6.20;99.90;;;;;;5011956;28;20041;-43
2022/05/30 05:03:12;;;;;;;4.22;2.47;;;6.40;99.90;;;;;;5011894;28;20078;-42
2022/05/30 05:05:38;;;;;;;6.57;2.60;;;6.50;99.90;;;;;;5011883;28;20069;-42
2022/05/30 05:08:27;;;;;;;6.65;2.72;;;6.40;99.90;;;;;;5012001;28;20077;-43
2022/05/30 05:10:58;;;;;;;5.72;2.20;;;6.60;99.90;;;;;;5011527;28;20049;-45
2022/05/30 05:13:24;;;;;;;6.60;2.53;;;6.70;99.90;;;;;;5012188;28;20556;-42
2022/05/30 05:15:58;;;;;;;6.22;2.67;;;6.60;99.90;;;;;;5011664;28;20173;-44
2022/05/30 05:18:23;;;;;;;4.95;2.28;;;7.40;99.90;;;;;;5012346;28;20053;-44
2022/05/30 05:20:49;;;;;;;7.22;2.65;;;7.00;99.90;;;;;;5011928;28;20045;-42
2022/05/30 05:23:16;;;;;;;4.80;2.10;;;7.00;99.90;;;;;;5011948;28;20049;-44
2022/05/30 05:25:41;;;;;;;5.70;2.58;;;6.80;99.90;;;;;;5011688;28;20076;-44
2022/05/30 05:28:08;;;;;;;6.18;3.13;;;7.10;99.90;;;;;;5011479;28;20050;-43
2022/05/30 05:30:34;;;;;;;7.53;2.47;;;7.10;99.90;;;;;;5011693;28;20388;-42
2022/05/30 05:33:00;;;;;;;6.47;1.88;;;7.30;99.90;;;;;;5011430;28;20434;-43
2022/05/30 05:35:26;;;;;;;3.85;1.63;;;7.30;99.90;;;;;;5011807;28;20120;-43
2022/05/30 05:37:51;;;;;;;4.53;1.48;;;8.60;99.90;;;;;;5011516;28;20046;-43
2022/05/30 05:40:18;;;;;;;5.82;1.90;;;7.60;99.90;;;;;;5011506;28;20042;-43
2022/05/30 05:42:43;;;;;;;8.27;2.65;;;7.90;99.90;;;;;;5011710;28;20092;-42
2022/05/30 05:45:10;;;;;;;6.47;1.38;;;8.10;99.90;;;;;;5010816;28;20048;-42
2022/05/30 05:47:36;;;;;;;8.43;2.15;;;8.40;99.90;;;;;;5011247;28;20121;-43
2022/05/30 05:50:02;;;;;;;8.65;1.83;;;8.90;99.90;;;;;;5011349;28;20076;-43
2022/05/30 05:52:28;;;;;;;5.38;1.50;;;9.40;99.90;;;;;;5011219;28;20469;-43
2022/05/30 05:54:55;;;;;;;5.20;1.50;;;9.50;99.90;;;;;;5010933;28;20449;-43
2022/05/30 05:57:22;;;;;;;3.78;1.27;;;10.60;99.90;;;;;;5010047;28;20081;-43
2022/05/30 05:59:48;;;;;;;7.15;1.05;;;11.00;99.90;;;;;;5011841;28;20046;-45
2022/05/30 06:02:13;;;;;;;3.90;0.77;;;12.60;99.90;;;;;;5022215;28;20044;-43
2022/05/30 06:04:39;;;;;;;5.43;1.02;;;13.00;99.90;;;;;;5020463;28;20037;-46
2022/05/30 06:07:06;;;;;;;3.38;0.68;;;12.90;99.90;;;;;;5022325;28;20057;-44
2022/05/30 06:09:32;;;;;;;3.00;0.73;;;13.60;99.90;;;;;;5022474;28;20042;-44
2022/05/30 06:11:59;;;;;;;5.72;0.70;;;12.80;99.90;;;;;;5024412;28;20056;-44
2022/05/30 06:14:25;;;;;;;4.53;0.80;;;12.90;99.90;;;;;;5027894;28;20041;-45
2022/05/30 06:16:51;;;;;;;2.92;0.95;;;13.10;99.90;;;;;;5012308;28;20050;-45
2022/05/30 06:19:16;;;;;;;3.90;0.60;;;13.30;99.90;;;;;;5012603;28;20074;-44
2022/05/30 06:21:42;;;;;;;2.05;0.50;;;13.60;99.90;;;;;;5013040;28;20125;-46
2022/05/30 06:24:10;;;;;;;3.92;0.55;;;14.50;99.90;;;;;;5012506;28;20134;-44
2022/05/30 06:26:36;;;;;;;6.18;0.30;;;14.70;99.90;;;;;;5019448;28;20063;-44
2022/05/30 06:29:02;;;;;;;3.30;0.43;;;15.90;99.90;;;;;;5022139;28;20132;-45
2022/05/30 06:31:30;;;;;;;2.45;0.40;;;17.70;99.90;;;;;;5020837;28;20050;-44
2022/05/30 06:33:58;;;;;;;1.27;0.28;;;18.50;99.90;;;;;;5020651;28;20492;-45
2022/05/30 06:36:24;;;;;;;1.52;0.30;;;18.40;99.90;;;;;;5022029;28;20112;-46
2022/05/30 06:38:51;;;;;;;1.35;0.20;;;20.10;95.90;;;;;;5020508;28;20109;-46
2022/05/30 06:41:26;;;;;;;2.22;0.22;;;21.50;91.90;;;;;;5019378;28;20033;-47
2022/05/30 06:43:54;;;;;;;2.35;0.20;;;22.00;86.70;;;;;;5021271;28;20041;-47
2022/05/30 06:46:20;;;;;;;1.20;0.10;;;22.50;85.50;;;;;;5027585;28;20474;-46
2022/05/30 06:48:47;;;;;;;1.45;0.20;;;22.60;82.50;;;;;;5012903;28;20056;-47
2022/05/30 06:51:15;;;;;;;0.88;0.10;;;23.20;78.60;;;;;;5019112;28;20037;-46
2022/05/30 06:53:41;;;;;;;1.63;0.50;;;22.40;77.20;;;;;;5020080;28;20087;-48
2022/05/30 06:56:23;;;;;;;0.30;0.10;;;21.40;77.30;;;;;;5018030;28;20037;-46
2022/05/30 06:58:50;;;;;;;2.95;0.10;;;20.70;75.60;;;;;;5020094;28;20049;-46
2022/05/30 07:01:18;;;;;;;0.88;0.17;;;20.30;79.00;;;;;;5019342;28;20524;-47
2022/05/30 07:03:45;;;;;;;0.65;0.10;;;20.00;77.60;;;;;;5018195;28;20460;-47
2022/05/30 07:06:14;;;;;;;3.90;0.25;;;19.80;77.50;;;;;;5019369;28;20061;-47
2022/05/30 07:08:41;;;;;;;1.65;0.20;;;19.50;75.90;;;;;;5020168;28;20041;-47
2022/05/30 07:11:07;;;;;;;0.90;0.03;;;19.40;76.80;;;;;;5016051;28;20092;-46
2022/05/30 07:13:33;;;;;;;1.60;0.10;;;19.30;77.10;;;;;;5020108;28;20037;-46
2022/05/30 07:15:59;;;;;;;2.00;0.10;;;19.30;77.60;;;;;;5019245;28;20081;-48
2022/05/30 07:18:25;;;;;;;1.10;0.10;;;19.50;77.00;;;;;;5014385;28;20041;-47
2022/05/30 07:20:58;;;;;;;0.65;0.00;;;19.70;76.00;;;;;;5014463;28;20464;-48
2022/05/30 07:23:24;;;;;;;0.57;0.00;;;19.90;73.70;;;;;;5017774;28;20108;-47
2022/05/30 07:25:50;;;;;;;0.85;0.10;;;20.40;74.30;;;;;;5013718;28;20042;-48
2022/05/30 07:28:16;;;;;;;1.27;0.10;;;20.90;73.30;;;;;;5012636;28;20045;-48
2022/05/30 07:30:42;;;;;;;0.90;0.10;;;21.50;71.50;;;;;;5014062;28;20044;-48
2022/05/30 07:33:09;;;;;;;0.70;0.10;;;22.40;69.10;;;;;;5016250;28;20033;-47
2022/05/30 07:35:35;;;;;;;1.00;0.03;;;24.10;67.20;;;;;;5018617;28;20502;-48
2022/05/30 07:38:01;;;;;;;1.40;0.20;;;25.10;64.80;;;;;;5018329;28;20033;-48
2022/05/30 07:40:26;;;;;;;0.80;0.10;;;26.30;63.30;;;;;;5019106;28;20094;-50
2022/05/30 07:42:53;;;;;;;0.77;0.10;;;27.60;59.90;;;;;;5019088;28;20048;-49
2022/05/30 07:45:18;;;;;;;2.17;0.15;;;28.60;59.00;;;;;;5017713;28;20046;-49
2022/05/30 07:47:44;;;;;;;2.58;0.10;;;29.60;56.10;;;;;;5019877;28;20059;-51
2022/05/30 07:50:10;;;;;;;0.80;0.10;;;;;;;;;;5017989;28;20505;-49
2022/05/30 07:52:36;;;;;;;0.55;0.03;;;31.20;52.60;;;;;;5027238;28;20049;-50
2022/05/30 07:55:02;;;;;;;0.65;0.10;;;29.40;53.30;;;;;;5028796;28;20038;-49
2022/05/30 08:00:14;;;;;;;0.75;0.10;;;27.50;52.00;;;;;;5029024;28;20451;-48
2022/05/30 08:02:41;;;;;;;2.75;0.10;;;25.40;53.50;;;;;;5028465;28;20041;-47
2022/05/30 08:05:10;;;;;;;0.70;0.10;;;24.00;59.70;;;;;;5028959;28;20091;-48
2022/05/30 08:07:36;;;;;;;0.68;0.08;;;23.00;57.30;;;;;;5026825;28;20140;-47
2022/05/30 08:10:06;;;;;;;1.80;0.10;;;21.90;59.40;;;;;;5019180;28;20052;-48
2022/05/30 08:12:32;;;;;;;2.33;0.40;;;21.00;62.50;;;;;;5009029;28;20057;-48
2022/05/30 08:14:58;;;;;;;5.28;0.10;;;20.30;64.30;;;;;;5009389;28;20088;-50
2022/05/30 08:17:24;;;;;;;1.58;0.10;;;19.70;66.90;;;;;;5009174;28;20136;-47
2022/05/30 08:19:50;;;;;;;1.50;0.05;;;19.20;71.60;;;;;;5009333;28;20124;-47
2022/05/30 08:22:16;;;;;;;1.20;0.00;;;18.30;71.60;;;;;;5009374;28;20049;-46
2022/05/30 08:24:45;;;;;;;1.48;0.17;;;18.60;73.40;;;;;;5009134;28;20049;-48
2022/05/30 08:27:11;;;;;;;0.75;0.10;;;18.70;72.70;;;;;;5009271;28;20504;-46
2022/05/30 08:29:37;;;;;;;2.28;0.08;;;19.60;72.40;;;;;;5009584;28;20050;-48
2022/05/30 08:32:04;;;;;;;1.45;0.28;;;20.50;70.10;;;;;;5010305;28;20037;-46
2022/05/30 08:34:32;;;;;;;1.23;0.05;;;21.00;68.00;;;;;;5012994;28;20285;-50
2022/05/30 08:37:00;;;;;;;1.27;0.10;;;20.80;64.40;;;;;;5013032;28;20046;-46
2022/05/30 08:42:10;;;;;;;0.90;0.00;;;20.00;65.50;;;;;;5012480;28;20532;-47
2022/05/30 08:44:36;;;;;;;1.05;0.10;;;19.60;66.80;;;;;;5012365;28;20046;-46
2022/05/30 08:47:30;;;;;;;1.95;0.10;;;19.10;68.70;;;;;;5012334;28;20481;-47
2022/05/30 08:50:08;;;;;;;4.88;0.55;;;18.40;76.00;;;;;;5010574;28;20133;-46
2022/05/30 08:52:39;;;;;;;2.17;0.20;;;18.20;79.50;;;;;;5011691;28;20044;-46
2022/05/30 08:55:34;;;;;;;3.67;0.20;;;17.40;81.90;;;;;;5011830;28;20380;-45
2022/05/30 08:58:37;;;;;;;0.77;0.30;;;16.80;83.70;;;;;;5018775;28;20119;-46
2022/05/30 09:01:09;;;;;;;0.73;0.10;;;16.30;88.30;;;;;;5023325;28;20048;-47
2022/05/30 09:04:06;;;;;;;1.58;0.10;;;15.80;88.70;;;;;;5012518;28;20121;-46
2022/05/30 09:06:35;;;;;;;1.48;0.10;;;15.90;90.90;;;;;;5011844;28;20107;-46
2022/05/30 09:09:45;;;;;;;1.00;0.28;;;15.20;91.80;;;;;;5012577;28;20061;-49
2022/05/30 09:12:32;;;;;;;0.75;0.10;;;15.20;92.70;;;;;;5021440;28;20065;-46
2022/05/30 09:15:27;;;;;;;2.40;0.10;;;15.20;94.20;;;;;;5031950;28;20045;-47
2022/05/30 09:18:11;;;;;;;0.85;0.00;;;15.30;95.10;;;;;;5031289;28;20056;-46
2022/05/30 09:20:41;;;;;;;1.00;0.10;;;15.50;94.70;;;;;;5031057;28;20095;-46
2022/05/30 09:23:08;;;;;;;1.05;0.10;;;15.80;94.30;;;;;;5031032;28;20496;-45
2022/05/30 09:26:01;;;;;;;1.75;0.10;;;16.20;93.60;;;;;;5031756;28;20048;-46
2022/05/30 09:28:33;;;;;;;1.60;0.10;;;16.70;92.80;;;;;;5031751;28;20404;-46
2022/05/30 09:31:23;;;;;;;0.40;0.10;;;17.20;91.40;;;;;;5031481;28;20500;-47
2022/05/30 09:34:00;;;;;;;2.00;0.20;;;17.70;90.90;;;;;;5027044;28;20126;-47
2022/05/30 09:36:32;;;;;;;1.65;0.10;;;19.90;91.50;;;;;;5022054;28;20493;-46
2022/05/30 09:38:59;;;;;;;0.63;0.00;;;23.60;99.90;;;;;;5022567;28;20041;-49
2022/05/30 09:41:28;;;;;;;0.55;0.10;;;26.20;77.40;;;;;;5023414;28;20045;-48
2022/05/30 09:44:01;;;;;;;0.63;0.00;;;26.00;68.80;;;;;;5024623;28;20448;-46
2022/05/30 09:46:35;;;;;;;0.50;0.10;;;25.60;64.30;;;;;;5024806;28;20045;-45
2022/05/30 09:49:05;;;;;;;1.70;0.10;;;24.80;65.50;;;;;;5024573;28;20041;-46
2022/05/30 09:51:43;;;;;;;1.02;0.10;;;24.00;65.60;;;;;;5023765;28;20126;-47
2022/05/30 09:54:25;;;;;;;1.25;0.10;;;23.10;66.10;;;;;;5021965;28;20092;-44
2022/05/30 09:56:58;;;;;;;1.83;0.32;;;22.10;68.20;;;;;;5025350;28;20107;-45
2022/05/30 09:59:24;;;;;;;0.57;0.05;;;21.00;73.30;;;;;;5025580;28;20171;-48
2022/05/30 10:01:51;;;;;;;2.30;0.08;;;19.80;75.40;;;;;;5021602;28;20116;-45
2022/05/30 10:04:42;;;;;;;3.65;0.40;;;18.60;78.00;;;;;;5019787;28;20045;-43
2022/05/30 10:07:17;;;;;;;1.52;0.40;;;17.30;93.40;;;;;;5017076;28;20135;-44
2022/05/30 10:09:58;;;;;;;3.08;0.40;;;16.50;88.20;;;;;;5020128;28;20069;-44
2022/05/30 10:12:51;;;;;;;2.30;0.10;;;15.60;91.30;;;;;;5019024;28;20074;-44
2022/05/30 10:15:26;;;;;;;0.40;0.00;;;15.00;92.50;;;;;;5021363;28;20045;-44
2022/05/30 10:17:53;;;;;;;1.17;0.00;;;14.50;94.30;;;;;;5015901;28;20046;-46
2022/05/30 10:20:38;;;;;;;0.77;0.00;;;14.30;95.00;;;;;;5013759;28;20440;-43
2022/05/30 10:29:27;;;;;;;1.15;0.03;;;13.60;99.60;;;;;;5020364;28;20049;-42
2022/05/30 10:32:07;;;;;;;0.52;0.05;;;13.50;99.90;;;;;;5027726;28;20428;-43
2022/05/30 10:35:04;;;;;;;0.43;0.00;;;13.60;99.90;;;;;;5016164;28;20042;-43
2022/05/30 10:37:48;;;;;;;1.50;0.10;;;13.90;99.90;;;;;;5016190;28;20050;-44
2022/05/30 10:40:14;;;;;;;0.22;0.00;;;14.10;99.90;;;;;;5018669;28;20492;-44
2022/05/30 10:42:50;;;;;;;0.32;0.00;;;14.30;99.90;;;;;;5018140;28;20044;-44
2022/05/30 10:45:18;;;;;;;2.30;0.10;;;14.20;99.90;;;;;;5016912;28;20030;-45
2022/05/30 10:47:48;;;;;;;1.65;0.25;;;13.80;99.90;;;;;;5018718;28;20038;-45
2022/05/30 10:50:23;;;;;;;1.38;0.10;;;13.50;99.90;;;;;;5029651;28;20044;-44
2022/05/30 10:53:03;;;;;;;2.25;0.30;;;13.40;99.90;;;;;;5023748;28;20038;-44
2022/05/30 10:55:38;;;;;;;1.27;0.20;;;13.40;99.90;;;;;;5021094;28;20034;-45
2022/05/30 10:58:12;;;;;;;1.02;0.10;;;13.50;99.90;;;;;;5017947;28;20049;-43
2022/05/30 11:01:02;;;;;;;0.82;0.10;;;13.50;99.90;;;;;;5015245;28;20041;-44
2022/05/30 11:03:41;;;;;;;1.27;0.10;;;13.60;99.90;;;;;;5022776;28;20038;-45
2022/05/30 11:06:10;;;;;;;15.00;0.95;;;13.80;99.90;;;;;;5030347;28;20064;-46
2022/05/30 11:08:51;;;;;;;1.83;0.10;;;14.20;99.90;;;;;;5029766;28;20045;-46
2022/05/30 11:11:41;;;;;;;2.38;0.30;;;14.30;99.90;;;;;;5019488;28;20045;-49
2022/05/30 11:14:23;;;;;;;0.47;0.00;;;14.80;99.90;;;;;;5025399;28;20038;-46
2022/05/30 11:17:12;;;;;;;0.98;0.00;;;15.30;99.90;;;;;;5007958;28;20096;-43
2022/05/30 11:20:11;;;;;;;0.70;0.00;;;15.60;99.90;;;;;;4983969;28;20902;-43
2022/05/30 11:22:39;;;;;;;0.50;0.00;;;15.70;99.90;;;;;;5002117;28;20113;-44
2022/05/30 11:25:14;;;;;;;1.45;0.00;;;15.90;99.90;;;;;;5009059;28;20445;-42
2022/05/30 11:27:51;;;;;;;0.73;0.20;;;16.20;99.90;;;;;;5006315;28;20026;-42
2022/05/30 11:30:35;;;;;;;0.10;0.00;;;16.50;99.90;;;;;;5010617;28;20048;-44
2022/05/30 11:33:28;;;;;;;0.30;0.00;;;16.70;99.90;;;;;;5011871;28;20400;-51
2022/05/30 11:35:53;;;;;;;;;;;16.90;99.80;;;;;;5008510;28;20418;-47
2022/05/30 11:38:44;;;;;;;0.20;0.00;;;16.90;98.70;;;;;;5007640;28;19929;-58
2022/05/30 11:41:36;;;;;;;0.10;0.00;;;16.80;97.40;;;;;;5005998;28;20036;-56
2022/05/30 11:44:40;;;;;;;0.35;0.10;;;16.90;97.70;;;;;;5006420;28;20052;-46
2022/05/30 11:47:15;;;;;;;2.22;0.00;;;16.90;96.70;;;;;;5006562;28;20056;-55
2022/05/30 11:50:00;;;;;;;1.80;0.10;;;16.90;97.00;;;;;;5016955;28;20053;-57
2022/05/30 11:53:00;;;;;;;0.77;0.10;;;17.10;96.00;;;;;;5008579;28;20049;-58
2022/05/30 11:55:44;;;;;;;0.93;0.10;;;17.30;96.70;;;;;;5008269;28;20046;-55
2022/05/30 11:58:14;;;;;;;0.50;0.10;;;17.50;96.40;;;;;;5005332;28;20370;-55
2022/05/30 12:00:47;;;;;;;2.30;0.10;;;17.60;95.60;;;;;;5005569;28;20045;-54
2022/05/30 12:04:11;;;;;;;2.20;0.10;;;17.60;94.80;;;;;;5007759;28;20037;-56
2022/05/30 12:06:49;;;;;;;0.50;0.10;;;17.70;95.40;;;;;;4978255;28;20599;-47
2022/05/30 12:09:33;;;;;;;2.83;0.10;;;17.80;95.10;;;;;;5002569;28;20038;-49
2022/05/30 12:12:24;;;;;;;2.35;0.10;;;17.90;95.10;;;;;;5006840;28;20053;-48
2022/05/30 12:15:14;;;;;;;2.05;0.17;;;18.10;95.60;;;;;;5009644;28;20169;-55
2022/05/30 12:24:08;;;;;;;0.15;0.10;;;18.40;93.60;;;;;;5010259;28;20052;-54
2022/05/30 12:26:46;;;;;;;0.35;0.10;;;18.20;92.50;;;;;;5011830;28;20938;-47
2022/05/30 12:29:39;;;;;;;1.65;0.00;;;17.90;92.30;;;;;;5012473;28;20710;-49
2022/05/30 12:32:16;;;;;;;3.50;0.00;;;17.60;92.30;;;;;;5011895;28;20519;-48
2022/05/30 12:35:00;;;;;;;1.92;0.00;;;17.30;92.60;;;;;;5010163;28;20038;-48
2022/05/30 12:37:47;;;;;;;2.20;0.22;;;17.20;93.20;;;;;;5011533;28;20049;-46
2022/05/30 12:40:19;;;;;;;0.60;0.00;;;16.90;92.70;;;;;;5024385;28;20041;-47
2022/05/30 12:42:45;;;;;;;3.47;0.10;;;16.70;93.20;;;;;;5013088;28;20038;-49
2022/05/30 12:45:22;;;;;;;0.20;0.00;;;16.50;93.50;;;;;;5011668;28;20034;-52
2022/05/30 12:47:54;;;;;;;2.13;0.03;;;16.30;93.80;;;;;;5010476;28;20116;-56
2022/05/30 12:50:40;;;;;;;;;;;16.10;94.30;;;;;;5012725;28;20820;-50
2022/05/30 12:53:06;;;;;;;1.70;0.20;;;16.00;94.40;;;;;;5013459;28;19917;-58
2022/05/30 12:55:46;;;;;;;0.43;0.00;;;16.00;94.50;;;;;;5010498;28;20041;-58
2022/05/30 12:58:35;;;;;;;0.95;0.05;;;16.00;94.60;;;;;;5010148;28;20022;-45
2022/05/30 13:01:49;;;;;;;0.57;0.00;;;16.10;94.60;;;;;;5002692;28;20033;-44
2022/05/30 13:04:26;;;;;;;0.22;0.00;;;16.00;94.00;;;;;;5012900;28;20042;-47
2022/05/30 13:06:58;;;;;;;1.10;0.10;;;16.00;94.10;;;;;;5014053;28;20100;-54
2022/05/30 13:09:37;;;;;;;1.52;0.15;;;15.90;94.20;;;;;;5012931;28;20052;-52
2022/05/30 13:12:53;;;;;;;0.77;0.00;;;15.90;94.50;;;;;;5012485;28;20034;-55
2022/05/30 13:15:35;;;;;;;0.73;0.10;;;16.00;94.80;;;;;;4992544;28;20038;-52
2022/05/30 13:18:08;;;;;;;0.80;0.05;;;16.10;94.70;;;;;;5010749;28;20041;-49
2022/05/30 13:20:47;;;;;;;0.88;0.10;;;16.20;94.40;;;;;;5011772;28;20037;-48
2022/05/30 13:23:15;;;;;;;0.32;0.00;;;16.40;94.50;;;;;;5010791;28;20053;-52
2022/05/30 13:25:50;;;;;;;0.10;0.00;;;16.50;94.20;;;;;;5011079;28;20702;-45
2022/05/30 13:28:29;;;;;;;0.65;0.00;;;16.60;94.30;;;;;;5016795;28;20040;-46
2022/05/30 13:30:58;;;;;;;1.38;0.10;;;16.70;93.00;;;;;;5032413;28;20042;-42
2022/05/30 13:33:28;;;;;;;1.35;0.05;;;16.90;93.00;;;;;;5032818;28;20124;-43
2022/05/30 13:36:00;;;;;;;2.63;0.10;;;17.10;93.10;;;;;;5032827;28;20046;-45
2022/05/30 13:38:45;;;;;;;1.38;0.10;;;17.40;92.70;;;;;;5032744;28;20116;-41
2022/05/30 13:41:24;;;;;;;1.95;0.10;;;17.70;92.90;;;;;;5032477;28;20045;-43
2022/05/30 13:43:57;;;;;;;4.55;0.05;;;17.90;91.90;;;;;;5032872;28;20091;-43